createdAt,value
2017-04-28T00:00:06.963Z,38.22
2017-04-28T00:02:47.650Z,39.94
2017-04-28T00:05:14.733Z,35.12
2017-04-28T00:07:41.781Z,34.58
2017-04-28T00:10:08.854Z,36.28
2017-04-28T00:12:36.610Z,33.40
2017-04-28T00:15:04.349Z,33.96
2017-04-28T00:17:31.329Z,35.86
2017-04-28T00:19:58.347Z,35.32
2017-04-28T00:22:25.518Z,35.30
2017-04-28T00:24:52.535Z,37.36
2017-04-28T00:27:19.533Z,35.06
2017-04-28T00:29:46.573Z,36.38
2017-04-28T00:32:14.305Z,35.20
2017-04-28T00:34:41.275Z,37.36
2017-04-28T00:37:08.284Z,35.40
2017-04-28T00:39:35.274Z,32.84
2017-04-28T00:42:02.265Z,38.76
2017-04-28T00:44:29.252Z,36.92
2017-04-28T00:46:56.272Z,38.66
2017-04-28T00:49:23.259Z,41.48
2017-04-28T00:51:51.090Z,38.70
2017-04-28T00:54:18.101Z,40.88
2017-04-28T00:56:45.296Z,42.36
2017-04-28T00:59:12.317Z,41.82
2017-04-28T01:01:39.340Z,38.26
2017-04-28T01:04:06.346Z,37.14
2017-04-28T01:06:33.326Z,42.10
2017-04-28T01:09:00.333Z,43.50
2017-04-28T01:11:27.302Z,43.00
2017-04-28T01:13:55.076Z,39.26
2017-04-28T01:16:22.064Z,40.24
2017-04-28T01:18:49.079Z,44.22
2017-04-28T01:21:16.802Z,44.82
2017-04-28T01:23:44.517Z,48.16
2017-04-28T01:26:11.523Z,48.72
2017-04-28T01:28:38.511Z,47.16
2017-04-28T01:31:05.514Z,44.00
2017-04-28T01:33:32.503Z,45.56
2017-04-28T01:35:59.551Z,42.36
2017-04-28T01:38:26.528Z,45.18
2017-04-28T01:40:53.548Z,49.76
2017-04-28T01:43:21.273Z,45.60
2017-04-28T01:45:48.251Z,49.68
2017-04-28T01:48:15.264Z,46.06
2017-04-28T01:50:43.013Z,49.00
2017-04-28T01:53:10.022Z,47.60
2017-04-28T01:55:37.027Z,50.84
2017-04-28T01:58:04.782Z,47.80
2017-04-28T02:00:31.755Z,45.44
2017-04-28T02:02:58.759Z,47.92
2017-04-28T02:05:26.539Z,49.82
2017-04-28T02:07:53.518Z,49.72
2017-04-28T02:10:20.543Z,41.70
2017-04-28T02:12:47.522Z,44.46
2017-04-28T02:15:14.550Z,47.14
2017-04-28T02:17:42.271Z,44.94
2017-04-28T02:20:09.281Z,41.94
2017-04-28T02:22:37.011Z,44.36
2017-04-28T02:25:04.038Z,47.20
2017-04-28T02:27:31.759Z,42.60
2017-04-28T02:29:58.731Z,43.86
2017-04-28T02:32:25.734Z,44.70
2017-04-28T02:34:52.732Z,43.14
2017-04-28T02:37:19.763Z,44.40
2017-04-28T02:39:46.754Z,45.80
2017-04-28T02:42:13.770Z,45.16
2017-04-28T02:44:40.777Z,42.74
2017-04-28T02:47:07.782Z,50.20
2017-04-28T02:49:34.766Z,48.92
2017-04-28T02:52:01.758Z,44.98
2017-04-28T02:54:29.533Z,45.82
2017-04-28T02:56:56.518Z,45.28
2017-04-28T02:59:23.531Z,42.38
2017-04-28T03:01:51.254Z,44.10
2017-04-28T03:04:18.258Z,42.84
2017-04-28T03:06:45.253Z,38.42
2017-04-28T03:09:12.294Z,40.94
2017-04-28T03:11:39.266Z,39.62
2017-04-28T03:14:06.240Z,39.36
2017-04-28T03:16:33.333Z,41.86
2017-04-28T03:19:00.301Z,38.34
2017-04-28T03:21:28.054Z,36.46
2017-04-28T03:23:55.771Z,40.64
2017-04-28T03:26:22.797Z,42.32
2017-04-28T03:28:49.793Z,40.24
2017-04-28T03:31:16.780Z,38.30
2017-04-28T03:33:43.782Z,41.76
2017-04-28T03:36:11.506Z,43.42
2017-04-28T03:38:38.516Z,39.70
2017-04-28T03:41:05.521Z,38.18
2017-04-28T03:43:33.277Z,37.68
2017-04-28T03:46:01.011Z,44.16
2017-04-28T03:48:28.749Z,43.46
2017-04-28T03:50:55.738Z,42.08
2017-04-28T03:53:22.712Z,44.22
2017-04-28T03:55:50.475Z,45.40
2017-04-28T03:58:18.227Z,46.04
2017-04-28T04:00:45.963Z,42.08
2017-04-28T04:03:12.959Z,39.14
2017-04-28T04:05:39.955Z,44.86
2017-04-28T04:08:06.974Z,40.46
2017-04-28T04:10:33.966Z,36.12
2017-04-28T04:13:01.710Z,40.22
2017-04-28T04:15:28.686Z,46.44
2017-04-28T04:17:55.697Z,39.22
2017-04-28T04:20:22.672Z,39.82
2017-04-28T04:22:50.413Z,41.50
2017-04-28T04:25:17.384Z,39.68
2017-04-28T04:27:45.147Z,40.66
2017-04-28T04:30:12.897Z,40.36
2017-04-28T04:32:40.726Z,45.64
2017-04-28T04:35:07.915Z,36.36
2017-04-28T04:37:34.894Z,36.74
2017-04-28T04:40:01.955Z,36.88
2017-04-28T04:42:29.680Z,36.46
2017-04-28T04:44:56.667Z,35.06
2017-04-28T04:47:23.670Z,31.80
2017-04-28T04:49:50.654Z,32.98
2017-04-28T04:52:17.646Z,34.60
2017-04-28T04:54:44.637Z,34.38
2017-04-28T04:57:11.663Z,31.12
2017-04-28T04:59:38.646Z,29.60
2017-04-28T05:02:05.711Z,32.02
2017-04-28T05:04:32.700Z,29.36
2017-04-28T05:06:59.681Z,28.92
2017-04-28T05:09:26.696Z,24.78
2017-04-28T05:11:53.734Z,26.40
2017-04-28T05:14:20.741Z,30.48
2017-04-28T05:16:47.711Z,24.26
2017-04-28T05:19:14.723Z,23.56
2017-04-28T05:21:41.706Z,22.68
2017-04-28T05:24:08.709Z,26.20
2017-04-28T05:26:36.445Z,28.70
2017-04-28T05:29:03.530Z,26.24
2017-04-28T05:31:30.516Z,24.58
2017-04-28T05:33:57.525Z,22.54
2017-04-28T05:36:24.522Z,22.86
2017-04-28T05:38:51.512Z,27.32
2017-04-28T05:41:18.514Z,26.96
2017-04-28T05:43:45.506Z,22.28
2017-04-28T05:46:12.536Z,24.76
2017-04-28T05:48:39.545Z,25.30
2017-04-28T05:51:06.541Z,20.02
2017-04-28T05:53:34.291Z,19.72
2017-04-28T05:56:01.295Z,21.92
2017-04-28T05:58:28.294Z,21.40
2017-04-28T06:00:55.288Z,22.30
2017-04-28T06:03:22.310Z,19.08
2017-04-28T06:05:49.294Z,20.40
2017-04-28T06:08:16.298Z,20.64
2017-04-28T06:10:44.038Z,22.38
2017-04-28T06:13:11.788Z,19.52
2017-04-28T06:15:38.811Z,20.24
2017-04-28T06:18:05.852Z,20.90
2017-04-28T06:20:32.818Z,21.90
2017-04-28T06:22:59.821Z,23.28
2017-04-28T06:25:26.826Z,21.40
2017-04-28T06:27:53.847Z,22.18
2017-04-28T06:30:20.868Z,19.26
2017-04-28T06:32:47.853Z,23.74
2017-04-28T06:35:14.871Z,22.74
2017-04-28T06:37:41.878Z,21.48
2017-04-28T06:40:09.631Z,26.22
2017-04-28T06:42:37.353Z,23.40
2017-04-28T06:45:04.388Z,22.86
2017-04-28T06:47:31.419Z,21.10
2017-04-28T06:49:58.425Z,22.00
2017-04-28T06:52:25.454Z,23.70
2017-04-28T06:54:52.474Z,23.72
2017-04-28T06:57:19.480Z,21.00
2017-04-28T06:59:46.497Z,20.46
2017-04-28T07:02:13.500Z,26.30
2017-04-28T07:04:41.233Z,26.58
2017-04-28T07:07:08.264Z,20.64
2017-04-28T07:09:35.254Z,22.48
2017-04-28T07:12:02.261Z,21.88
2017-04-28T07:14:29.269Z,19.66
2017-04-28T07:16:56.254Z,21.94
2017-04-28T07:19:23.599Z,20.34
2017-04-28T07:21:50.604Z,20.30
2017-04-28T07:24:17.607Z,20.64
2017-04-28T07:26:44.589Z,24.70
2017-04-28T07:29:11.587Z,20.66
2017-04-28T07:31:38.573Z,17.82
2017-04-28T07:34:05.583Z,19.90
2017-04-28T07:36:32.563Z,22.38
2017-04-28T07:38:59.612Z,20.00
2017-04-28T07:41:26.649Z,19.52
2017-04-28T07:43:54.457Z,19.64
2017-04-28T07:46:21.458Z,20.32
2017-04-28T07:48:48.600Z,21.04
2017-04-28T07:51:15.614Z,17.66
2017-04-28T07:53:42.624Z,18.00
2017-04-28T07:56:10.211Z,19.10
2017-04-28T07:58:37.183Z,21.20
2017-04-28T08:01:05.137Z,19.20
2017-04-28T08:03:32.866Z,22.06
2017-04-28T08:05:59.950Z,17.08
2017-04-28T08:08:27.709Z,23.56
2017-04-28T08:10:54.707Z,23.12
2017-04-28T08:13:22.249Z,20.44
2017-04-28T08:15:49.232Z,20.32
2017-04-28T08:18:16.235Z,18.14
2017-04-28T08:20:43.276Z,19.30
2017-04-28T08:23:11.051Z,19.80
2017-04-28T08:25:38.906Z,18.62
2017-04-28T08:28:05.899Z,17.64
2017-04-28T08:30:32.906Z,23.56
2017-04-28T08:32:59.891Z,19.12
2017-04-28T08:35:26.904Z,20.36
2017-04-28T08:37:53.914Z,20.06
2017-04-28T08:40:20.898Z,23.06
2017-04-28T08:42:47.909Z,16.58
2017-04-28T08:45:14.879Z,17.58
2017-04-28T08:47:41.866Z,17.66
2017-04-28T08:50:08.862Z,20.92
2017-04-28T08:52:35.887Z,18.96
2017-04-28T08:55:03.625Z,17.12
2017-04-28T08:57:31.062Z,17.18
2017-04-28T08:59:58.063Z,20.04
2017-04-28T09:02:27.033Z,19.10
2017-04-28T09:04:54.040Z,23.66
2017-04-28T09:07:21.028Z,16.54
2017-04-28T09:09:48.357Z,17.16
2017-04-28T09:12:15.343Z,19.34
2017-04-28T09:14:43.096Z,16.70
2017-04-28T09:17:10.095Z,18.06
2017-04-28T09:19:37.076Z,16.02
2017-04-28T09:22:04.467Z,15.56
2017-04-28T09:24:31.453Z,14.34
2017-04-28T09:26:59.683Z,17.84
2017-04-28T09:29:26.675Z,17.50
2017-04-28T09:31:53.674Z,13.22
2017-04-28T09:34:21.189Z,13.84
2017-04-28T09:36:48.954Z,20.00
2017-04-28T09:39:15.989Z,14.56
2017-04-28T09:41:43.055Z,14.92
2017-04-28T09:44:10.072Z,15.20
2017-04-28T09:46:37.795Z,15.24
2017-04-28T09:49:04.810Z,15.06
2017-04-28T09:51:31.795Z,14.22
2017-04-28T09:53:59.223Z,13.82
2017-04-28T09:56:26.971Z,12.54
2017-04-28T09:58:54.368Z,12.06
2017-04-28T10:01:21.370Z,13.24
2017-04-28T10:03:48.377Z,13.62
2017-04-28T10:06:15.364Z,16.68
2017-04-28T10:08:42.461Z,12.10
2017-04-28T10:11:09.451Z,12.22
2017-04-28T10:13:36.458Z,11.12
2017-04-28T10:16:03.474Z,11.98
2017-04-28T10:18:30.473Z,11.06
2017-04-28T10:20:57.472Z,11.66
2017-04-28T10:23:24.454Z,11.68
2017-04-28T10:25:52.663Z,12.08
2017-04-28T10:28:19.747Z,10.72
2017-04-28T10:30:46.758Z,12.46
2017-04-28T10:33:13.729Z,12.04
2017-04-28T10:35:41.475Z,13.54
2017-04-28T10:38:08.452Z,11.52
2017-04-28T10:40:35.419Z,12.68
2017-04-28T10:43:02.441Z,10.66
2017-04-28T10:45:36.465Z,9.82
2017-04-28T10:48:03.483Z,8.88
2017-04-28T10:50:30.454Z,7.58
2017-04-28T10:52:58.230Z,8.06
2017-04-28T10:55:25.242Z,7.34
2017-04-28T10:57:52.891Z,6.90
2017-04-28T11:00:19.987Z,12.26
2017-04-28T11:02:47.041Z,10.34
2017-04-28T11:05:14.087Z,10.94
2017-04-28T11:07:41.070Z,9.76
2017-04-28T11:10:08.046Z,10.76
2017-04-28T11:12:35.350Z,8.62
2017-04-28T11:15:02.346Z,7.76
2017-04-28T11:17:30.294Z,7.02
2017-04-28T11:19:57.286Z,8.74
2017-04-28T11:22:24.881Z,9.56
2017-04-28T11:24:51.860Z,9.32
2017-04-28T11:27:19.709Z,9.00
2017-04-28T11:29:46.687Z,4.82
2017-04-28T11:32:14.400Z,6.06
2017-04-28T11:34:41.376Z,9.12
2017-04-28T11:37:09.326Z,8.52
2017-04-28T11:39:36.379Z,8.74
2017-04-28T11:42:03.380Z,10.88
2017-04-28T11:44:30.429Z,8.58
2017-04-28T11:46:57.437Z,8.12
2017-04-28T11:49:24.441Z,8.12
2017-04-28T11:51:51.434Z,7.64
2017-04-28T11:54:18.469Z,7.52
2017-04-28T11:56:46.185Z,10.26
2017-04-28T11:59:13.905Z,8.40
2017-04-28T12:01:40.909Z,9.10
2017-04-28T12:04:07.878Z,9.70
2017-04-28T12:06:34.890Z,10.34
2017-04-28T12:09:01.870Z,9.40
2017-04-28T12:11:29.592Z,9.46
2017-04-28T12:13:56.599Z,8.20
2017-04-28T12:16:23.599Z,10.10
2017-04-28T12:18:50.605Z,10.28
2017-04-28T12:21:17.591Z,9.34
2017-04-28T12:23:44.590Z,8.62
2017-04-28T12:26:11.575Z,8.78
2017-04-28T12:28:38.585Z,8.74
2017-04-28T12:31:05.611Z,8.24
2017-04-28T12:33:32.615Z,9.06
2017-04-28T12:35:59.606Z,8.04
2017-04-28T12:38:26.589Z,9.24
2017-04-28T12:40:54.531Z,8.08
2017-04-28T12:43:21.841Z,7.88
2017-04-28T12:45:49.404Z,8.92
2017-04-28T12:48:16.466Z,8.08
2017-04-28T12:50:44.359Z,8.22
2017-04-28T12:53:11.560Z,9.50
2017-04-28T12:55:38.656Z,10.18
2017-04-28T12:58:06.648Z,8.82
2017-04-28T13:00:34.004Z,8.84
2017-04-28T13:03:01.925Z,13.04
2017-04-28T13:05:29.103Z,11.68
2017-04-28T13:07:56.841Z,8.94
2017-04-28T13:10:24.574Z,10.14
2017-04-28T13:12:51.570Z,8.54
2017-04-28T13:15:18.544Z,9.42
2017-04-28T13:17:45.527Z,10.24
2017-04-28T13:20:12.526Z,8.34
2017-04-28T13:22:39.523Z,9.58
2017-04-28T13:25:07.272Z,8.80
2017-04-28T13:27:34.321Z,9.32
2017-04-28T13:30:01.327Z,10.86
2017-04-28T13:32:28.310Z,12.42
2017-04-28T13:34:55.288Z,8.98
2017-04-28T13:37:22.298Z,9.44
2017-04-28T13:39:49.271Z,13.50
2017-04-28T13:42:16.354Z,8.48
2017-04-28T13:44:44.391Z,8.82
2017-04-28T13:47:11.486Z,9.94
2017-04-28T13:49:38.503Z,11.28
2017-04-28T13:52:05.530Z,9.16
2017-04-28T13:54:32.564Z,12.42
2017-04-28T13:56:59.735Z,8.02
2017-04-28T13:59:26.777Z,7.90
2017-04-28T14:01:53.834Z,8.08
2017-04-28T14:04:21.210Z,7.64
2017-04-28T14:06:48.211Z,8.40
2017-04-28T14:09:15.969Z,11.32
2017-04-28T14:11:43.724Z,7.62
2017-04-28T14:14:10.793Z,6.14
2017-04-28T14:16:37.803Z,7.32
2017-04-28T14:19:04.786Z,7.50
2017-04-28T14:21:31.790Z,6.88
2017-04-28T14:23:58.784Z,7.22
2017-04-28T14:26:25.900Z,11.90
2017-04-28T14:28:52.930Z,7.56
2017-04-28T14:31:19.916Z,9.88
2017-04-28T14:33:47.713Z,7.08
2017-04-28T14:36:14.714Z,10.78
2017-04-28T14:38:42.526Z,6.24
2017-04-28T14:41:09.558Z,11.18
2017-04-28T14:43:36.568Z,6.72
2017-04-28T14:46:03.639Z,7.60
2017-04-28T14:48:30.716Z,6.90
2017-04-28T14:53:20.411Z,8.82
2017-04-28T14:55:47.534Z,7.68
2017-04-28T14:58:14.603Z,9.46
2017-04-28T15:00:41.637Z,7.48
2017-04-28T15:03:08.686Z,7.60
2017-04-28T15:05:35.894Z,6.88
2017-04-28T15:08:03.686Z,7.10
2017-04-28T15:10:30.724Z,8.30
2017-04-28T15:12:57.838Z,7.92
2017-04-28T15:15:26.874Z,9.06
2017-04-28T15:17:53.958Z,8.10
2017-04-28T15:20:20.972Z,8.98
2017-04-28T15:22:48.037Z,8.60
2017-04-28T15:25:15.087Z,9.16
2017-04-28T15:27:42.096Z,7.98
2017-04-28T15:30:09.172Z,6.92
2017-04-28T15:32:36.173Z,7.16
2017-04-28T15:35:03.237Z,7.74
2017-04-28T15:37:30.282Z,8.70
2017-04-28T15:39:57.490Z,7.10
2017-04-28T15:42:25.100Z,10.34
2017-04-28T15:44:59.256Z,7.60
2017-04-28T15:47:26.357Z,10.10
2017-04-28T15:49:53.391Z,8.42
2017-04-28T15:52:20.394Z,8.44
2017-04-28T15:54:47.402Z,8.82
2017-04-28T15:57:14.425Z,8.14
2017-04-28T15:59:42.192Z,8.70
2017-04-28T16:02:09.214Z,7.98
2017-04-28T16:04:36.340Z,7.38
2017-04-28T16:07:03.382Z,7.28
2017-04-28T16:09:30.370Z,8.20
2017-04-28T16:11:58.172Z,7.94
2017-04-28T16:14:25.179Z,7.92
2017-04-28T16:16:52.901Z,9.06
2017-04-28T16:19:19.918Z,8.96
2017-04-28T16:21:46.894Z,9.96
2017-04-28T16:24:13.943Z,7.78
2017-04-28T16:26:40.938Z,8.88
2017-04-28T16:29:08.764Z,8.46
2017-04-28T16:31:35.831Z,7.54
2017-04-28T16:34:02.856Z,8.56
2017-04-28T16:36:30.623Z,7.86
2017-04-28T16:38:57.666Z,7.14
2017-04-28T16:41:25.416Z,8.94
2017-04-28T16:43:53.135Z,8.48
2017-04-28T16:46:20.163Z,9.36
2017-04-28T16:48:47.168Z,9.50
2017-04-28T16:51:14.938Z,7.74
2017-04-28T16:53:42.770Z,7.20
2017-04-28T16:56:09.820Z,7.22
2017-04-28T16:58:36.783Z,7.70
2017-04-28T17:01:03.757Z,8.18
2017-04-28T17:03:30.797Z,8.38
2017-04-28T17:05:57.877Z,7.90
2017-04-28T17:08:24.926Z,10.68
2017-04-28T17:10:52.004Z,7.82
2017-04-28T17:13:19.042Z,7.72
2017-04-28T17:15:46.026Z,9.98
2017-04-28T17:18:13.029Z,7.46
2017-04-28T17:20:40.013Z,7.26
2017-04-28T17:23:07.010Z,11.02
2017-04-28T17:25:33.982Z,7.54
2017-04-28T17:28:01.043Z,9.50
2017-04-28T17:30:28.072Z,8.90
2017-04-28T17:32:55.108Z,10.62
2017-04-28T17:35:22.145Z,13.18
2017-04-28T17:37:49.135Z,7.54
2017-04-28T17:40:16.158Z,13.80
2017-04-28T17:42:43.424Z,11.90
2017-04-28T17:45:10.446Z,11.58
2017-04-28T17:47:37.493Z,12.34
2017-04-28T17:50:04.566Z,11.82
2017-04-28T17:52:31.574Z,12.14
2017-04-28T17:54:58.581Z,10.00
2017-04-28T17:57:25.674Z,7.62
2017-04-28T17:59:52.646Z,6.98
2017-04-28T18:02:19.654Z,7.96
2017-04-28T18:04:46.625Z,7.90
2017-04-28T18:07:14.346Z,10.48
2017-04-28T18:09:42.064Z,7.84
2017-04-28T18:12:09.059Z,7.34
2017-04-28T18:14:36.781Z,8.54
2017-04-28T18:17:03.794Z,7.88
2017-04-28T18:19:30.821Z,8.40
2017-04-28T18:21:58.537Z,8.26
2017-04-28T18:24:26.137Z,8.30
2017-04-28T18:26:53.882Z,10.28
2017-04-28T18:29:20.885Z,9.14
2017-04-28T18:31:47.881Z,9.74
2017-04-28T18:34:15.630Z,13.36
2017-04-28T18:36:42.613Z,9.60
2017-04-28T18:39:09.585Z,10.18
2017-04-28T18:41:36.590Z,8.60
2017-04-28T18:44:04.320Z,10.08
2017-04-28T18:46:31.322Z,9.68
2017-04-28T18:48:58.321Z,8.82
2017-04-28T18:51:25.335Z,8.62
2017-04-28T18:53:52.305Z,10.06
2017-04-28T18:56:19.313Z,10.40
2017-04-28T18:58:46.323Z,10.44
2017-04-28T19:01:13.317Z,9.40
2017-04-28T19:03:40.343Z,11.66
2017-04-28T19:06:07.340Z,12.98
2017-04-28T19:08:34.358Z,9.34
2017-04-28T19:11:01.349Z,10.34
2017-04-28T19:13:28.366Z,10.58
2017-04-28T19:15:56.084Z,12.92
2017-04-28T19:18:23.064Z,10.08
2017-04-28T19:20:50.105Z,10.46
2017-04-28T19:23:17.080Z,10.26
2017-04-28T19:25:44.077Z,9.60
2017-04-28T19:28:11.054Z,8.16
2017-04-28T19:30:38.782Z,12.58
2017-04-28T19:33:05.787Z,7.64
2017-04-28T19:35:32.766Z,8.44
2017-04-28T19:37:59.770Z,9.46
2017-04-28T19:40:27.481Z,7.16
2017-04-28T19:42:55.231Z,9.84
2017-04-28T19:45:22.198Z,11.10
2017-04-28T19:47:49.201Z,11.34
2017-04-28T19:50:16.178Z,12.20
2017-04-28T19:52:43.946Z,10.38
2017-04-28T19:55:11.685Z,8.88
2017-04-28T19:57:38.667Z,10.92
2017-04-28T20:00:05.673Z,17.98
2017-04-28T20:02:32.659Z,25.54
2017-04-28T20:04:59.659Z,27.54
2017-04-28T20:07:26.670Z,26.74
2017-04-28T20:09:53.667Z,25.74
2017-04-28T20:12:20.662Z,26.98
2017-04-28T20:14:47.685Z,20.82
2017-04-28T20:17:15.406Z,21.08
2017-04-28T20:19:42.381Z,27.70
2017-04-28T20:22:10.121Z,11.96
2017-04-28T20:24:37.090Z,12.04
2017-04-28T20:27:04.837Z,14.32
2017-04-28T20:29:31.817Z,15.34
2017-04-28T20:31:58.819Z,14.08
2017-04-28T20:34:25.789Z,15.68
2017-04-28T20:36:53.506Z,17.18
2017-04-28T20:39:20.520Z,16.68
2017-04-28T20:41:47.498Z,14.16
2017-04-28T20:44:14.498Z,16.62
2017-04-28T20:46:42.210Z,17.48
2017-04-28T20:49:09.202Z,15.38
2017-04-28T20:51:36.922Z,12.64
2017-04-28T20:54:03.926Z,16.06
2017-04-28T20:56:31.721Z,12.82
2017-04-28T20:58:58.759Z,11.76
2017-04-28T21:01:25.755Z,14.68
2017-04-28T21:03:52.767Z,9.96
2017-04-28T21:06:19.742Z,12.32
2017-04-28T21:08:46.719Z,10.42
2017-04-28T21:11:14.474Z,11.46
2017-04-28T21:13:42.190Z,11.82
2017-04-28T21:16:09.202Z,16.68
2017-04-28T21:18:36.181Z,11.58
2017-04-28T21:21:03.186Z,15.40
2017-04-28T21:23:30.163Z,13.38
2017-04-28T21:25:57.145Z,13.24
2017-04-28T21:28:24.879Z,14.44
2017-04-28T21:30:51.877Z,12.80
2017-04-28T21:33:18.902Z,12.22
2017-04-28T21:35:46.614Z,11.68
2017-04-28T21:38:13.608Z,18.74
2017-04-28T21:40:41.317Z,20.56
2017-04-28T21:43:08.333Z,12.86
2017-04-28T21:45:35.306Z,13.92
2017-04-28T21:48:02.317Z,12.22
2017-04-28T21:50:30.021Z,11.96
2017-04-28T21:52:56.998Z,14.40
2017-04-28T21:55:24.011Z,11.38
2017-04-28T21:57:50.982Z,10.84
2017-04-28T22:00:18.430Z,10.96
2017-04-28T22:02:45.416Z,14.74
2017-04-28T22:05:13.170Z,12.64
2017-04-28T22:07:40.891Z,13.10
2017-04-28T22:12:41.553Z,12.50
2017-04-28T22:15:14.589Z,13.78
2017-04-28T22:17:42.306Z,11.76
2017-04-28T22:20:09.302Z,11.14
2017-04-28T22:22:36.301Z,11.26
2017-04-28T22:25:03.275Z,11.26
2017-04-28T22:27:31.019Z,15.04
2017-04-28T22:29:57.994Z,11.64
2017-04-28T22:32:25.737Z,11.26
2017-04-28T22:34:52.718Z,14.10
2017-04-28T22:37:19.720Z,13.90
2017-04-28T22:39:46.710Z,12.06
2017-04-28T22:42:13.706Z,10.86
2017-04-28T22:44:40.710Z,11.16
2017-04-28T22:47:07.686Z,17.20
2017-04-28T22:49:34.688Z,14.98
2017-04-28T22:52:01.666Z,12.42
2017-04-28T22:54:28.686Z,13.22
2017-04-28T22:56:55.663Z,14.74
2017-04-28T22:59:22.684Z,11.04
2017-04-28T23:01:49.682Z,11.14
2017-04-28T23:04:16.654Z,14.90
2017-04-28T23:06:44.401Z,10.42
2017-04-28T23:09:11.382Z,12.98
2017-04-28T23:11:38.395Z,15.34
2017-04-28T23:14:05.402Z,10.02
2017-04-28T23:16:32.405Z,12.10
2017-04-28T23:19:00.143Z,10.46
2017-04-28T23:21:27.122Z,9.94
2017-04-28T23:23:54.853Z,16.56
2017-04-28T23:26:21.826Z,12.58
2017-04-28T23:28:49.562Z,10.94
2017-04-28T23:31:16.542Z,12.10
2017-04-28T23:33:43.542Z,9.98
2017-04-28T23:36:10.526Z,11.12
2017-04-28T23:38:38.293Z,11.66
2017-04-28T23:41:06.014Z,11.62
2017-04-28T23:43:33.011Z,13.48
2017-04-28T23:45:59.981Z,11.74
2017-04-28T23:48:26.994Z,10.72
2017-04-28T23:50:54.713Z,10.28
2017-04-28T23:53:21.695Z,10.20
2017-04-28T23:55:49.461Z,14.44
2017-04-28T23:58:17.199Z,11.60
